sensor_id;sensor_type;location;lat;lon;timestamp;pressure;altitude;pressure_sealevel;temperature;humidity
49311;BME280;35177;45.900;5.946;2023-01-27T00:01:06;97475.53;;;-0.19;100.00
49311;BME280;35177;45.900;5.946;2023-01-27T00:03:33;97487.28;;;-0.18;100.00
49311;BME280;35177;45.900;5.946;2023-01-27T00:05:59;97481.25;;;-0.20;100.00
49311;BME280;35177;45.900;5.946;2023-01-27T00:08:26;97480.19;;;-0.19;100.00
49311;BME280;35177;45.900;5.946;2023-01-27T00:11:00;97474.00;;;-0.14;100.00
49311;BME280;35177;45.900;5.946;2023-01-27T00:13:44;97478.94;;;-0.11;100.00
49311;BME280;35177;45.900;5.946;2023-01-27T00:16:09;97478.19;;;-0.07;100.00
49311;BME280;35177;45.900;5.946;2023-01-27T00:18:35;97472.66;;;-0.12;100.00
49311;BME280;35177;45.900;5.946;2023-01-27T00:21:00;97472.59;;;-0.17;100.00
49311;BME280;35177;45.900;5.946;2023-01-27T00:23:44;97475.66;;;-0.13;100.00
49311;BME280;35177;45.900;5.946;2023-01-27T00:26:28;97470.28;;;-0.25;100.00
49311;BME280;35177;45.900;5.946;2023-01-27T00:28:54;97468.69;;;-0.21;100.00
49311;BME280;35177;45.900;5.946;2023-01-27T00:31:19;97473.34;;;-0.22;100.00
49311;BME280;35177;45.900;5.946;2023-01-27T00:34:04;97467.28;;;-0.24;100.00
49311;BME280;35177;45.900;5.946;2023-01-27T00:36:36;97464.91;;;-0.20;100.00
49311;BME280;35177;45.900;5.946;2023-01-27T00:39:04;97465.47;;;-0.18;100.00
49311;BME280;35177;45.900;5.946;2023-01-27T00:41:30;97463.22;;;-0.21;100.00
49311;BME280;35177;45.900;5.946;2023-01-27T00:43:55;97472.75;;;-0.24;100.00
49311;BME280;35177;45.900;5.946;2023-01-27T00:46:23;97472.00;;;-0.19;100.00
49311;BME280;35177;45.900;5.946;2023-01-27T00:48:50;97465.41;;;-0.23;100.00
49311;BME280;35177;45.900;5.946;2023-01-27T00:51:19;97459.94;;;-0.23;100.00
49311;BME280;35177;45.900;5.946;2023-01-27T00:53:45;97459.94;;;-0.23;100.00
49311;BME280;35177;45.900;5.946;2023-01-27T00:56:11;97452.25;;;-0.26;100.00
49311;BME280;35177;45.900;5.946;2023-01-27T00:58:37;97463.41;;;-0.28;100.00
49311;BME280;35177;45.900;5.946;2023-01-27T01:01:05;97459.38;;;-0.25;100.00
49311;BME280;35177;45.900;5.946;2023-01-27T01:03:33;97455.91;;;-0.21;100.00
49311;BME280;35177;45.900;5.946;2023-01-27T01:06:02;97459.44;;;-0.20;100.00
49311;BME280;35177;45.900;5.946;2023-01-27T01:08:30;97453.59;;;-0.29;100.00
49311;BME280;35177;45.900;5.946;2023-01-27T01:10:56;97462.81;;;-0.30;100.00
49311;BME280;35177;45.900;5.946;2023-01-27T01:13:22;97457.63;;;-0.31;100.00
49311;BME280;35177;45.900;5.946;2023-01-27T01:15:47;97454.91;;;-0.31;100.00
49311;BME280;35177;45.900;5.946;2023-01-27T01:18:13;97445.66;;;-0.30;100.00
49311;BME280;35177;45.900;5.946;2023-01-27T01:20:42;97451.09;;;-0.30;100.00
49311;BME280;35177;45.900;5.946;2023-01-27T01:23:09;97460.03;;;-0.35;100.00
49311;BME280;35177;45.900;5.946;2023-01-27T01:25:35;97456.56;;;-0.30;100.00
49311;BME280;35177;45.900;5.946;2023-01-27T01:28:01;97463.41;;;-0.28;100.00
49311;BME280;35177;45.900;5.946;2023-01-27T01:30:27;97459.69;;;-0.22;100.00
49311;BME280;35177;45.900;5.946;2023-01-27T01:32:54;97460.09;;;-0.30;100.00
49311;BME280;35177;45.900;5.946;2023-01-27T01:35:20;97459.63;;;-0.27;100.00
49311;BME280;35177;45.900;5.946;2023-01-27T01:37:46;97458.22;;;-0.29;100.00
49311;BME280;35177;45.900;5.946;2023-01-27T01:40:13;97450.59;;;-0.27;100.00
49311;BME280;35177;45.900;5.946;2023-01-27T01:48:10;97446.97;;;-0.33;100.00
49311;BME280;35177;45.900;5.946;2023-01-27T01:50:40;97442.84;;;-0.36;100.00
49311;BME280;35177;45.900;5.946;2023-01-27T01:53:09;97443.94;;;-0.37;100.00
49311;BME280;35177;45.900;5.946;2023-01-27T01:55:36;97444.81;;;-0.31;100.00
49311;BME280;35177;45.900;5.946;2023-01-27T01:58:06;97442.09;;;-0.31;100.00
49311;BME280;35177;45.900;5.946;2023-01-27T02:00:33;97440.19;;;-0.30;100.00
49311;BME280;35177;45.900;5.946;2023-01-27T02:03:00;97433.91;;;-0.31;100.00
49311;BME280;35177;45.900;5.946;2023-01-27T02:05:32;97440.94;;;-0.35;100.00
49311;BME280;35177;45.900;5.946;2023-01-27T02:10:32;97429.13;;;-0.41;100.00
49311;BME280;35177;45.900;5.946;2023-01-27T02:12:58;97423.66;;;-0.41;100.00
49311;BME280;35177;45.900;5.946;2023-01-27T02:15:23;97423.25;;;-0.33;100.00
49311;BME280;35177;45.900;5.946;2023-01-27T02:17:49;97418.13;;;-0.29;100.00
49311;BME280;35177;45.900;5.946;2023-01-27T02:20:32;97415.66;;;-0.30;100.00
49311;BME280;35177;45.900;5.946;2023-01-27T02:28:37;97413.59;;;-0.23;100.00
49311;BME280;35177;45.900;5.946;2023-01-27T02:31:02;97408.63;;;-0.26;100.00
49311;BME280;35177;45.900;5.946;2023-01-27T02:33:28;97409.75;;;-0.22;100.00
49311;BME280;35177;45.900;5.946;2023-01-27T02:38:46;97398.84;;;-0.22;100.00
49311;BME280;35177;45.900;5.946;2023-01-27T02:41:20;97393.41;;;-0.22;100.00
49311;BME280;35177;45.900;5.946;2023-01-27T02:43:48;97396.06;;;-0.27;100.00
49311;BME280;35177;45.900;5.946;2023-01-27T02:46:14;97399.69;;;-0.22;100.00
49311;BME280;35177;45.900;5.946;2023-01-27T02:48:40;97397.38;;;-0.30;100.00
49311;BME280;35177;45.900;5.946;2023-01-27T02:51:05;97391.59;;;-0.34;100.00
49311;BME280;35177;45.900;5.946;2023-01-27T02:53:31;97392.69;;;-0.35;100.00
49311;BME280;35177;45.900;5.946;2023-01-27T02:55:56;97387.81;;;-0.33;100.00
49311;BME280;35177;45.900;5.946;2023-01-27T02:58:22;97388.31;;;-0.36;100.00
49311;BME280;35177;45.900;5.946;2023-01-27T03:00:47;97390.53;;;-0.33;100.00
49311;BME280;35177;45.900;5.946;2023-01-27T03:03:13;97389.94;;;-0.35;100.00
49311;BME280;35177;45.900;5.946;2023-01-27T03:05:38;97392.13;;;-0.37;100.00
49311;BME280;35177;45.900;5.946;2023-01-27T03:08:04;97397.06;;;-0.34;100.00
49311;BME280;35177;45.900;5.946;2023-01-27T03:10:29;97392.69;;;-0.35;100.00
49311;BME280;35177;45.900;5.946;2023-01-27T03:12:55;97386.47;;;-0.30;100.00
49311;BME280;35177;45.900;5.946;2023-01-27T03:15:20;97385.75;;;-0.25;100.00
49311;BME280;35177;45.900;5.946;2023-01-27T03:18:06;97387.31;;;-0.29;100.00
49311;BME280;35177;45.900;5.946;2023-01-27T03:20:45;97384.19;;;-0.38;100.00
49311;BME280;35177;45.900;5.946;2023-01-27T03:23:12;97383.44;;;-0.34;100.00
49311;BME280;35177;45.900;5.946;2023-01-27T03:25:42;97385.34;;;-0.34;100.00
49311;BME280;35177;45.900;5.946;2023-01-27T03:28:08;97380.44;;;-0.32;100.00
49311;BME280;35177;45.900;5.946;2023-01-27T03:30:34;97380.22;;;-0.30;100.00
49311;BME280;35177;45.900;5.946;2023-01-27T03:33:00;97386.00;;;-0.27;100.00
49311;BME280;35177;45.900;5.946;2023-01-27T03:35:27;97379.97;;;-0.29;100.00
49311;BME280;35177;45.900;5.946;2023-01-27T03:37:59;97389.06;;;-0.23;100.00
49311;BME280;35177;45.900;5.946;2023-01-27T03:40:44;97383.28;;;-0.27;100.00
49311;BME280;35177;45.900;5.946;2023-01-27T03:43:28;97378.03;;;-0.28;100.00
49311;BME280;35177;45.900;5.946;2023-01-27T03:46:12;97383.84;;;-0.42;100.00
49311;BME280;35177;45.900;5.946;2023-01-27T03:48:47;97386.28;;;-0.45;100.00
49311;BME280;35177;45.900;5.946;2023-01-27T03:51:14;97375.44;;;-0.40;100.00
49311;BME280;35177;45.900;5.946;2023-01-27T03:53:39;97385.03;;;-0.38;100.00
49311;BME280;35177;45.900;5.946;2023-01-27T03:56:05;97379.81;;;-0.39;100.00
49311;BME280;35177;45.900;5.946;2023-01-27T03:58:33;97379.97;;;-0.29;100.00
49311;BME280;35177;45.900;5.946;2023-01-27T04:01:02;97381.88;;;-0.29;100.00
49311;BME280;35177;45.900;5.946;2023-01-27T04:03:30;97377.41;;;-0.36;100.00
49311;BME280;35177;45.900;5.946;2023-01-27T04:06:18;97379.91;;;-0.34;100.00
49311;BME280;35177;45.900;5.946;2023-01-27T04:09:06;97373.38;;;-0.33;100.00
49311;BME280;35177;45.900;5.946;2023-01-27T04:11:31;97378.72;;;-0.38;100.00
49311;BME280;35177;45.900;5.946;2023-01-27T04:14:15;97376.19;;;-0.45;100.00
49311;BME280;35177;45.900;5.946;2023-01-27T04:16:41;97373.78;;;-0.41;100.00
49311;BME280;35177;45.900;5.946;2023-01-27T04:19:08;97377.84;;;-0.44;100.00
49311;BME280;35177;45.900;5.946;2023-01-27T04:21:34;97387.56;;;-0.48;100.00
49311;BME280;35177;45.900;5.946;2023-01-27T04:24:00;97376.78;;;-0.43;100.00
49311;BME280;35177;45.900;5.946;2023-01-27T04:26:27;97379.50;;;-0.43;100.00
49311;BME280;35177;45.900;5.946;2023-01-27T04:29:03;97381.13;;;-0.42;100.00
49311;BME280;35177;45.900;5.946;2023-01-27T04:31:29;97379.72;;;-0.44;100.00
49311;BME280;35177;45.900;5.946;2023-01-27T04:33:55;97378.41;;;-0.42;100.00
49311;BME280;35177;45.900;5.946;2023-01-27T04:36:20;97369.66;;;-0.44;100.00
49311;BME280;35177;45.900;5.946;2023-01-27T04:38:46;97374.84;;;-0.42;100.00
49311;BME280;35177;45.900;5.946;2023-01-27T04:41:12;97377.00;;;-0.44;100.00
49311;BME280;35177;45.900;5.946;2023-01-27T04:43:37;97378.91;;;-0.45;100.00
49311;BME280;35177;45.900;5.946;2023-01-27T04:46:03;97377.31;;;-0.41;100.00
49311;BME280;35177;45.900;5.946;2023-01-27T04:48:28;97369.16;;;-0.41;100.00
49311;BME280;35177;45.900;5.946;2023-01-27T04:50:54;97373.78;;;-0.41;100.00
49311;BME280;35177;45.900;5.946;2023-01-27T04:53:19;97373.19;;;-0.43;100.00
49311;BME280;35177;45.900;5.946;2023-01-27T04:55:47;97366.41;;;-0.41;100.00
49311;BME280;35177;45.900;5.946;2023-01-27T04:58:14;97367.50;;;-0.42;100.00
49311;BME280;35177;45.900;5.946;2023-01-27T05:00:41;97375.13;;;-0.44;100.00
49311;BME280;35177;45.900;5.946;2023-01-27T05:03:06;97370.16;;;-0.47;100.00
49311;BME280;35177;45.900;5.946;2023-01-27T05:05:34;97373.19;;;-0.43;100.00
49311;BME280;35177;45.900;5.946;2023-01-27T05:08:07;97379.41;;;-0.48;100.00
49311;BME280;35177;45.900;5.946;2023-01-27T05:10:34;97371.81;;;-0.46;100.00
49311;BME280;35177;45.900;5.946;2023-01-27T05:12:59;97377.31;;;-0.41;100.00
49311;BME280;35177;45.900;5.946;2023-01-27T05:15:26;97367.19;;;-0.45;100.00
49311;BME280;35177;45.900;5.946;2023-01-27T05:17:52;97375.03;;;-0.49;100.00
49311;BME280;35177;45.900;5.946;2023-01-27T05:20:17;97367.41;;;-0.47;100.00
49311;BME280;35177;45.900;5.946;2023-01-27T05:22:42;97377.25;;;-0.46;100.00
49311;BME280;35177;45.900;5.946;2023-01-27T05:25:08;97373.94;;;-0.48;100.00
49311;BME280;35177;45.900;5.946;2023-01-27T05:27:34;97371.72;;;-0.51;100.00
49311;BME280;35177;45.900;5.946;2023-01-27T05:30:00;97368.00;;;-0.45;100.00
49311;BME280;35177;45.900;5.946;2023-01-27T05:32:26;97371.81;;;-0.46;100.00
49311;BME280;35177;45.900;5.946;2023-01-27T05:34:51;97373.13;;;-0.49;100.00
49311;BME280;35177;45.900;5.946;2023-01-27T05:37:17;97359.09;;;-0.40;100.00
49311;BME280;35177;45.900;5.946;2023-01-27T05:39:42;97368.81;;;-0.44;100.00
49311;BME280;35177;45.900;5.946;2023-01-27T05:42:08;97368.59;;;-0.43;100.00
49311;BME280;35177;45.900;5.946;2023-01-27T05:44:33;97363.22;;;-0.38;100.00
49311;BME280;35177;45.900;5.946;2023-01-27T05:46:59;97370.16;;;-0.47;100.00
49311;BME280;35177;45.900;5.946;2023-01-27T05:49:24;97365.28;;;-0.45;100.00
49311;BME280;35177;45.900;5.946;2023-01-27T05:51:49;97369.66;;;-0.44;100.00
49311;BME280;35177;45.900;5.946;2023-01-27T05:54:15;97371.31;;;-0.43;100.00
49311;BME280;35177;45.900;5.946;2023-01-27T05:56:40;97369.91;;;-0.45;100.00
49311;BME280;35177;45.900;5.946;2023-01-27T05:59:06;97367.50;;;-0.42;100.00
49311;BME280;35177;45.900;5.946;2023-01-27T06:01:33;97367.19;;;-0.45;100.00
49311;BME280;35177;45.900;5.946;2023-01-27T06:03:59;97373.94;;;-0.48;100.00
49311;BME280;35177;45.900;5.946;2023-01-27T06:06:26;97363.38;;;-0.44;100.00
49311;BME280;35177;45.900;5.946;2023-01-27T06:08:53;97374.78;;;-0.47;100.00
49311;BME280;35177;45.900;5.946;2023-01-27T06:11:19;97370.91;;;-0.52;100.00
49311;BME280;35177;45.900;5.946;2023-01-27T06:13:46;97372.53;;;-0.51;100.00
49311;BME280;35177;45.900;5.946;2023-01-27T06:16:14;97370.16;;;-0.47;100.00
49311;BME280;35177;45.900;5.946;2023-01-27T06:18:42;97371.47;;;-0.50;100.00
49311;BME280;35177;45.900;5.946;2023-01-27T06:21:09;97363.28;;;-0.50;100.00
49311;BME280;35177;45.900;5.946;2023-01-27T06:23:36;97361.91;;;-0.52;100.00
49311;BME280;35177;45.900;5.946;2023-01-27T06:26:13;97368.19;;;-0.52;100.00
49311;BME280;35177;45.900;5.946;2023-01-27T06:28:39;97375.03;;;-0.49;100.00
49311;BME280;35177;45.900;5.946;2023-01-27T06:31:23;97367.69;;;-0.49;100.00
49311;BME280;35177;45.900;5.946;2023-01-27T06:33:49;97362.75;;;-0.52;100.00
49311;BME280;35177;45.900;5.946;2023-01-27T06:36:17;97367.09;;;-0.51;100.00
49311;BME280;35177;45.900;5.946;2023-01-27T06:38:44;97369.72;;;-0.39;100.00
49311;BME280;35177;45.900;5.946;2023-01-27T06:41:09;97378.03;;;-0.28;100.00
49311;BME280;35177;45.900;5.946;2023-01-27T06:43:35;97374.84;;;-0.25;100.00
49311;BME280;35177;45.900;5.946;2023-01-27T06:46:01;97381.34;;;-0.26;100.00
49311;BME280;35177;45.900;5.946;2023-01-27T06:48:27;97374.84;;;-0.25;100.00
49311;BME280;35177;45.900;5.946;2023-01-27T06:50:54;97380.69;;;-0.34;100.00
49311;BME280;35177;45.900;5.946;2023-01-27T06:53:19;97378.31;;;-0.30;100.00
49311;BME280;35177;45.900;5.946;2023-01-27T06:55:45;97372.53;;;-0.34;100.00
49311;BME280;35177;45.900;5.946;2023-01-27T06:58:11;97375.91;;;-0.26;100.00
49311;BME280;35177;45.900;5.946;2023-01-27T07:00:38;97381.88;;;-0.29;100.00
49311;BME280;35177;45.900;5.946;2023-01-27T07:03:05;97376.91;;;-0.33;100.00
49311;BME280;35177;45.900;5.946;2023-01-27T07:05:31;97376.91;;;-0.33;100.00
49311;BME280;35177;45.900;5.946;2023-01-27T07:07:57;97382.03;;;-0.36;100.00
49311;BME280;35177;45.900;5.946;2023-01-27T07:10:23;97383.75;;;-0.30;100.00
49311;BME280;35177;45.900;5.946;2023-01-27T07:12:48;97379.16;;;-0.29;100.00
49311;BME280;35177;45.900;5.946;2023-01-27T07:15:15;97382.09;;;-0.31;100.00
49311;BME280;35177;45.900;5.946;2023-01-27T07:17:41;97385.66;;;-0.30;100.00
49311;BME280;35177;45.900;5.946;2023-01-27T07:20:08;97376.31;;;-0.35;100.00
49311;BME280;35177;45.900;5.946;2023-01-27T07:22:34;97384.44;;;-0.40;100.00
49311;BME280;35177;45.900;5.946;2023-01-27T07:25:00;97379.56;;;-0.38;100.00
49311;BME280;35177;45.900;5.946;2023-01-27T07:27:25;97388.56;;;-0.37;100.00
49311;BME280;35177;45.900;5.946;2023-01-27T07:29:51;97385.59;;;-0.36;100.00
49311;BME280;35177;45.900;5.946;2023-01-27T07:32:17;97386.41;;;-0.35;100.00
49311;BME280;35177;45.900;5.946;2023-01-27T07:34:42;97387.47;;;-0.36;100.00
49311;BME280;35177;45.900;5.946;2023-01-27T07:37:08;97390.47;;;-0.38;100.00
49311;BME280;35177;45.900;5.946;2023-01-27T07:39:35;97393.53;;;-0.34;100.00
49311;BME280;35177;45.900;5.946;2023-01-27T07:42:02;97390.53;;;-0.33;100.00
49311;BME280;35177;45.900;5.946;2023-01-27T07:44:28;97385.34;;;-0.34;100.00
49311;BME280;35177;45.900;5.946;2023-01-27T07:46:54;97389.94;;;-0.35;100.00
49311;BME280;35177;45.900;5.946;2023-01-27T07:49:21;97388.63;;;-0.32;100.00
49311;BME280;35177;45.900;5.946;2023-01-27T07:51:47;97392.44;;;-0.33;100.00
49311;BME280;35177;45.900;5.946;2023-01-27T07:54:13;97394.91;;;-0.31;100.00
49311;BME280;35177;45.900;5.946;2023-01-27T07:56:38;97393.09;;;-0.26;100.00
49311;BME280;35177;45.900;5.946;2023-01-27T07:59:04;97391.13;;;-0.30;100.00
49311;BME280;35177;45.900;5.946;2023-01-27T08:01:29;97394.66;;;-0.30;100.00
49311;BME280;35177;45.900;5.946;2023-01-27T08:03:55;97382.44;;;-0.27;100.00
49311;BME280;35177;45.900;5.946;2023-01-27T08:06:21;97386.81;;;-0.26;100.00
49311;BME280;35177;45.900;5.946;2023-01-27T08:08:47;97390.44;;;-0.21;100.00
49311;BME280;35177;45.900;5.946;2023-01-27T08:11:16;97390.19;;;-0.19;100.00
49311;BME280;35177;45.900;5.946;2023-01-27T08:13:41;97391.31;;;-0.15;100.00
49311;BME280;35177;45.900;5.946;2023-01-27T08:16:11;97394.25;;;-0.22;100.00
49311;BME280;35177;45.900;5.946;2023-01-27T08:18:37;97397.22;;;-0.23;100.00
49311;BME280;35177;45.900;5.946;2023-01-27T08:21:05;97392.53;;;-0.28;100.00
49311;BME280;35177;45.900;5.946;2023-01-27T08:23:31;97394.19;;;-0.27;100.00
49311;BME280;35177;45.900;5.946;2023-01-27T08:25:59;97396.13;;;-0.22;100.00
49311;BME280;35177;45.900;5.946;2023-01-27T08:28:27;97400.03;;;-0.18;100.00
49311;BME280;35177;45.900;5.946;2023-01-27T08:30:54;97405.97;;;-0.21;100.00
49311;BME280;35177;45.900;5.946;2023-01-27T08:33:27;97411.09;;;-0.25;100.00
49311;BME280;35177;45.900;5.946;2023-01-27T08:35:52;97406.75;;;-0.26;100.00
49311;BME280;35177;45.900;5.946;2023-01-27T08:38:18;97418.28;;;-0.19;100.00
49311;BME280;35177;45.900;5.946;2023-01-27T08:40:45;97417.47;;;-0.19;100.00
49311;BME280;35177;45.900;5.946;2023-01-27T08:43:12;97413.06;;;-0.20;100.00
49311;BME280;35177;45.900;5.946;2023-01-27T08:45:39;97402.69;;;-0.23;100.00
49311;BME280;35177;45.900;5.946;2023-01-27T08:48:05;97415.22;;;-0.22;100.00
49311;BME280;35177;45.900;5.946;2023-01-27T08:50:31;97411.41;;;-0.21;100.00
49311;BME280;35177;45.900;5.946;2023-01-27T08:52:57;97416.06;;;-0.22;100.00
49311;BME280;35177;45.900;5.946;2023-01-27T08:55:32;97422.91;;;-0.19;100.00
49311;BME280;35177;45.900;5.946;2023-01-27T08:57:58;97415.22;;;-0.22;100.00
49311;BME280;35177;45.900;5.946;2023-01-27T09:00:24;97417.94;;;-0.22;100.00
49311;BME280;35177;45.900;5.946;2023-01-27T09:02:50;97419.03;;;-0.23;100.00
49311;BME280;35177;45.900;5.946;2023-01-27T09:05:16;97420.19;;;-0.19;100.00
49311;BME280;35177;45.900;5.946;2023-01-27T09:07:44;97415.88;;;-0.15;100.00
49311;BME280;35177;45.900;5.946;2023-01-27T09:10:11;97416.13;;;-0.17;100.00
49311;BME280;35177;45.900;5.946;2023-01-27T09:12:37;97423.72;;;-0.19;100.00
49311;BME280;35177;45.900;5.946;2023-01-27T09:15:03;97415.81;;;-0.20;100.00
49311;BME280;35177;45.900;5.946;2023-01-27T09:17:30;97417.78;;;-0.15;100.00
49311;BME280;35177;45.900;5.946;2023-01-27T09:19:56;97425.44;;;-0.12;100.00
49311;BME280;35177;45.900;5.946;2023-01-27T09:22:25;97428.44;;;-0.14;100.00
49311;BME280;35177;45.900;5.946;2023-01-27T09:24:50;97422.16;;;-0.14;100.00
49311;BME280;35177;45.900;5.946;2023-01-27T09:27:17;97423.06;;;-0.09;100.00
49311;BME280;35177;45.900;5.946;2023-01-27T09:29:43;97416.84;;;-0.04;100.00
49311;BME280;35177;45.900;5.946;2023-01-27T09:32:08;97418.31;;;0.04;100.00
49311;BME280;35177;45.900;5.946;2023-01-27T09:34:37;97426.09;;;-0.05;100.00
49311;BME280;35177;45.900;5.946;2023-01-27T09:37:12;97419.84;;;-0.06;100.00
49311;BME280;35177;45.900;5.946;2023-01-27T09:39:51;97428.59;;;-0.04;100.00
49311;BME280;35177;45.900;5.946;2023-01-27T09:48:40;97434.78;;;0.09;100.00
49311;BME280;35177;45.900;5.946;2023-01-27T10:00:02;97443.97;;;0.03;100.00
49311;BME280;35177;45.900;5.946;2023-01-27T10:05:24;97441.72;;;-0.01;100.00
49311;BME280;35177;45.900;5.946;2023-01-27T10:10:35;97446.00;;;0.12;100.00
49311;BME280;35177;45.900;5.946;2023-01-27T10:16:00;97452.47;;;0.06;100.00
49311;BME280;35177;45.900;5.946;2023-01-27T10:21:21;97450.81;;;0.05;100.00
49311;BME280;35177;45.900;5.946;2023-01-27T10:24:04;97448.09;;;0.05;100.00
49311;BME280;35177;45.900;5.946;2023-01-27T10:26:40;97445.84;;;0.02;100.00
49311;BME280;35177;45.900;5.946;2023-01-27T10:31:37;97442.69;;;0.10;100.00
49311;BME280;35177;45.900;5.946;2023-01-27T10:34:35;97449.81;;;0.11;100.00
49311;BME280;35177;45.900;5.946;2023-01-27T10:37:19;97455.75;;;0.08;100.00
49311;BME280;35177;45.900;5.946;2023-01-27T10:42:30;97445.38;;;0.05;100.00
49311;BME280;35177;45.900;5.946;2023-01-27T10:45:49;97450.63;;;0.12;100.00
49311;BME280;35177;45.900;5.946;2023-01-27T10:51:06;97453.78;;;0.04;100.00
49311;BME280;35177;45.900;5.946;2023-01-27T10:53:42;97444.78;;;0.03;100.00
49311;BME280;35177;45.900;5.946;2023-01-27T10:59:04;97438.00;;;0.06;100.00
49311;BME280;35177;45.900;5.946;2023-01-27T11:01:36;97446.69;;;0.03;100.00
49311;BME280;35177;45.900;5.946;2023-01-27T11:04:17;97450.56;;;0.07;100.00
49311;BME280;35177;45.900;5.946;2023-01-27T11:06:46;97447.25;;;0.05;100.00
49311;BME280;35177;45.900;5.946;2023-01-27T11:09:14;97451.16;;;0.09;100.00
49311;BME280;35177;45.900;5.946;2023-01-27T11:11:41;97446.00;;;0.12;100.00
49311;BME280;35177;45.900;5.946;2023-01-27T11:14:21;97450.88;;;0.10;100.00
49311;BME280;35177;45.900;5.946;2023-01-27T11:16:51;97444.59;;;0.10;100.00
49311;BME280;35177;45.900;5.946;2023-01-27T11:19:44;97450.63;;;0.12;100.00
49311;BME280;35177;45.900;5.946;2023-01-27T11:22:24;97447.03;;;0.06;100.00
49311;BME280;35177;45.900;5.946;2023-01-27T11:24:56;97446.25;;;0.11;100.00
49311;BME280;35177;45.900;5.946;2023-01-27T11:30:18;97447.91;;;0.12;100.00
49311;BME280;35177;45.900;5.946;2023-01-27T11:32:58;97437.50;;;0.09;100.00
49311;BME280;35177;45.900;5.946;2023-01-27T11:35:26;97441.78;;;0.05;100.00
49311;BME280;35177;45.900;5.946;2023-01-27T11:37:52;97436.16;;;0.11;100.00
49311;BME280;35177;45.900;5.946;2023-01-27T11:40:24;97431.84;;;0.15;100.00
49311;BME280;35177;45.900;5.946;2023-01-27T11:42:51;97428.88;;;0.17;100.00
49311;BME280;35177;45.900;5.946;2023-01-27T11:45:20;97435.50;;;0.21;100.00
49311;BME280;35177;45.900;5.946;2023-01-27T11:47:58;97430.09;;;0.26;100.00
49311;BME280;35177;45.900;5.946;2023-01-27T11:50:29;97422.72;;;0.27;100.00
49311;BME280;35177;45.900;5.946;2023-01-27T11:55:44;97420.25;;;0.25;100.00
49311;BME280;35177;45.900;5.946;2023-01-27T12:00:46;97417.84;;;0.29;100.00
49311;BME280;35177;45.900;5.946;2023-01-27T12:03:42;97415.09;;;0.29;100.00
49311;BME280;35177;45.900;5.946;2023-01-27T12:06:16;97414.09;;;0.35;100.00
49311;BME280;35177;45.900;5.946;2023-01-27T12:08:46;97420.19;;;0.42;100.00
49311;BME280;35177;45.900;5.946;2023-01-27T12:11:28;97410.03;;;0.38;100.00
49311;BME280;35177;45.900;5.946;2023-01-27T12:14:00;97418.53;;;0.41;100.00
49311;BME280;35177;45.900;5.946;2023-01-27T12:16:44;97407.56;;;0.36;100.00
49311;BME280;35177;45.900;5.946;2023-01-27T12:19:29;97403.81;;;0.42;100.00
49311;BME280;35177;45.900;5.946;2023-01-27T12:22:00;97399.75;;;0.45;100.00
49311;BME280;35177;45.900;5.946;2023-01-27T12:24:30;97406.41;;;0.54;100.00
49311;BME280;35177;45.900;5.946;2023-01-27T12:26:58;97398.66;;;0.46;100.00
49311;BME280;35177;45.900;5.946;2023-01-27T12:29:49;97398.09;;;0.44;100.00
49311;BME280;35177;45.900;5.946;2023-01-27T12:32:40;97390.97;;;0.43;100.00
49311;BME280;35177;45.900;5.946;2023-01-27T12:35:23;97395.34;;;0.44;100.00
49311;BME280;35177;45.900;5.946;2023-01-27T12:37:57;97397.59;;;0.47;100.00
49311;BME280;35177;45.900;5.946;2023-01-27T12:40:24;97393.69;;;0.43;100.00
49311;BME280;35177;45.900;5.946;2023-01-27T12:47:57;97389.03;;;0.38;100.00
49311;BME280;35177;45.900;5.946;2023-01-27T12:50:27;97390.88;;;0.32;100.00
49311;BME280;35177;45.900;5.946;2023-01-27T12:55:39;97395.31;;;0.39;100.00
49311;BME280;35177;45.900;5.946;2023-01-27T13:01:03;97393.25;;;0.51;100.00
49311;BME280;35177;45.900;5.946;2023-01-27T13:03:31;97397.91;;;0.51;100.00
49311;BME280;35177;45.900;5.946;2023-01-27T13:06:01;97407.50;;;0.53;100.00
49311;BME280;35177;45.900;5.946;2023-01-27T13:08:31;97397.28;;;0.43;100.00
49311;BME280;35177;45.900;5.946;2023-01-27T13:10:59;97402.75;;;0.43;100.00
49311;BME280;35177;45.900;5.946;2023-01-27T13:13:27;97398.28;;;0.37;100.00
49311;BME280;35177;45.900;5.946;2023-01-27T13:16:15;97392.78;;;0.32;100.00
49311;BME280;35177;45.900;5.946;2023-01-27T13:18:51;97398.63;;;0.41;100.00
49311;BME280;35177;45.900;5.946;2023-01-27T13:21:20;97403.81;;;0.42;100.00
49311;BME280;35177;45.900;5.946;2023-01-27T13:23:49;97402.16;;;0.41;100.00
49311;BME280;35177;45.900;5.946;2023-01-27T13:26:18;97399.16;;;0.43;100.00
49311;BME280;35177;45.900;5.946;2023-01-27T13:31:39;97402.84;;;0.54;100.00
49311;BME280;35177;45.900;5.946;2023-01-27T13:34:20;97415.47;;;0.60;100.00
49311;BME280;35177;45.900;5.946;2023-01-27T13:36:58;97398.66;;;0.46;100.00
49311;BME280;35177;45.900;5.946;2023-01-27T13:44:54;97410.28;;;0.58;100.00
49311;BME280;35177;45.900;5.946;2023-01-27T13:47:34;97399.41;;;0.63;100.00
49311;BME280;35177;45.900;5.946;2023-01-27T13:52:32;97396.63;;;0.58;100.00
49311;BME280;35177;45.900;5.946;2023-01-27T13:54:58;97405.31;;;0.55;100.00
49311;BME280;35177;45.900;5.946;2023-01-27T14:05:41;97404.28;;;0.61;100.00
49311;BME280;35177;45.900;5.946;2023-01-27T14:18:36;97416.69;;;0.47;100.00
49311;BME280;35177;45.900;5.946;2023-01-27T14:23:43;97417.78;;;0.46;100.00
49311;BME280;35177;45.900;5.946;2023-01-27T14:29:12;97430.53;;;0.40;100.00
49311;BME280;35177;45.900;5.946;2023-01-27T14:34:29;97428.31;;;0.37;100.00
49311;BME280;35177;45.900;5.946;2023-01-27T14:39:59;97425.81;;;0.36;100.00
49311;BME280;35177;45.900;5.946;2023-01-27T14:42:34;97428.25;;;0.32;100.00
49311;BME280;35177;45.900;5.946;2023-01-27T14:50:44;97435.88;;;0.30;100.00
49311;BME280;35177;45.900;5.946;2023-01-27T14:53:21;97439.09;;;0.27;100.00
49311;BME280;35177;45.900;5.946;2023-01-27T14:56:15;97447.03;;;0.28;100.00
49311;BME280;35177;45.900;5.946;2023-01-27T15:26:17;97465.56;;;0.26;100.00
49311;BME280;35177;45.900;5.946;2023-01-27T15:28:45;97464.22;;;0.29;100.00
49311;BME280;35177;45.900;5.946;2023-01-27T15:37:00;97470.00;;;0.32;100.00